createdAt,value
2023-05-06T00:01:10.890Z,2.30
2023-05-06T00:03:37.846Z,2.45
2023-05-06T00:06:07.125Z,2.00
2023-05-06T00:08:33.963Z,2.57
2023-05-06T00:11:00.843Z,2.10
2023-05-06T00:13:27.676Z,2.38
2023-05-06T00:15:54.551Z,2.42
2023-05-06T00:18:22.899Z,2.50
2023-05-06T00:20:49.877Z,2.27
2023-05-06T00:23:16.680Z,2.08
2023-05-06T00:25:43.585Z,2.40
2023-05-06T00:28:10.502Z,2.50
2023-05-06T00:30:37.301Z,2.63
2023-05-06T00:33:04.321Z,2.70
2023-05-06T00:35:31.291Z,2.63
2023-05-06T00:37:58.685Z,2.30
2023-05-06T00:40:25.573Z,2.47
2023-05-06T00:42:52.399Z,2.50
2023-05-06T00:45:19.261Z,2.73
2023-05-06T00:47:46.192Z,2.58
2023-05-06T00:50:13.042Z,2.25
2023-05-06T00:52:39.868Z,2.28
2023-05-06T00:55:07.006Z,2.55
2023-05-06T00:57:33.922Z,2.70
2023-05-06T01:00:00.794Z,2.38
2023-05-06T01:02:39.651Z,2.90
2023-05-06T01:05:13.613Z,2.50
2023-05-06T01:07:59.225Z,2.30
2023-05-06T01:11:02.433Z,2.90
2023-05-06T01:13:41.152Z,2.67
2023-05-06T01:16:08.476Z,2.60
2023-05-06T01:18:35.364Z,3.65
2023-05-06T01:21:02.362Z,2.53
2023-05-06T01:23:29.145Z,2.60
2023-05-06T01:25:56.048Z,3.00
2023-05-06T01:28:22.828Z,3.10
2023-05-06T01:30:53.715Z,3.30
2023-05-06T01:34:05.447Z,2.92
2023-05-06T01:36:54.614Z,3.10
2023-05-06T01:39:27.369Z,3.05
2023-05-06T01:41:54.854Z,2.63
2023-05-06T01:44:22.482Z,2.97
2023-05-06T01:46:49.694Z,3.17
2023-05-06T01:49:17.171Z,2.70
2023-05-06T01:51:50.986Z,2.85
2023-05-06T01:54:18.072Z,3.08
2023-05-06T01:56:44.890Z,2.80
2023-05-06T01:59:11.764Z,3.17
2023-05-06T02:01:38.661Z,3.17
2023-05-06T02:04:05.921Z,3.33
2023-05-06T02:06:32.857Z,2.90
2023-05-06T02:08:59.705Z,3.20
2023-05-06T02:11:26.548Z,3.05
2023-05-06T02:13:53.393Z,3.10
2023-05-06T02:16:22.021Z,3.30
2023-05-06T02:18:49.009Z,3.60
2023-05-06T02:21:15.885Z,3.20
2023-05-06T02:23:42.692Z,3.20
2023-05-06T02:26:09.599Z,3.10
2023-05-06T02:28:36.409Z,3.28
2023-05-06T02:31:03.217Z,3.38
2023-05-06T02:33:29.982Z,3.58
2023-05-06T02:35:56.745Z,2.92
2023-05-06T02:38:24.443Z,3.90
2023-05-06T02:40:51.175Z,3.35
2023-05-06T02:43:18.026Z,3.20
2023-05-06T02:45:44.829Z,3.35
2023-05-06T02:48:11.620Z,4.03
2023-05-06T02:50:38.454Z,3.40
2023-05-06T02:53:05.171Z,3.30
2023-05-06T02:55:31.982Z,3.47
2023-05-06T02:57:58.785Z,3.55
2023-05-06T03:00:25.626Z,3.85
2023-05-06T03:02:52.445Z,3.50
2023-05-06T03:05:19.416Z,3.47
2023-05-06T03:07:46.319Z,3.70
2023-05-06T03:10:13.129Z,3.65
2023-05-06T03:12:39.978Z,3.72
2023-05-06T03:15:07.398Z,3.80
2023-05-06T03:17:34.313Z,3.83
2023-05-06T03:20:01.182Z,3.70
2023-05-06T03:22:27.941Z,3.55
2023-05-06T03:24:54.731Z,3.90
2023-05-06T03:27:21.501Z,3.83
2023-05-06T03:29:48.276Z,4.10
2023-05-06T03:32:15.079Z,3.75
2023-05-06T03:34:41.878Z,3.80
2023-05-06T03:37:08.700Z,3.72
2023-05-06T03:39:35.562Z,4.07
2023-05-06T03:42:02.469Z,3.95
2023-05-06T03:44:29.258Z,3.72
2023-05-06T03:46:56.018Z,4.10
2023-05-06T03:49:22.817Z,3.92
2023-05-06T03:51:49.693Z,3.20
2023-05-06T03:54:16.458Z,4.15
2023-05-06T03:56:43.245Z,3.33
2023-05-06T03:59:10.077Z,3.92
2023-05-06T04:01:36.816Z,3.50
2023-05-06T04:04:03.618Z,3.57
2023-05-06T04:06:30.441Z,3.33
2023-05-06T04:08:57.198Z,3.38
2023-05-06T04:11:23.917Z,3.47
2023-05-06T04:13:50.768Z,3.65
2023-05-06T04:16:17.741Z,3.73
2023-05-06T04:18:44.508Z,3.38
2023-05-06T04:21:12.296Z,3.53
2023-05-06T04:23:39.096Z,3.40
2023-05-06T04:26:06.163Z,3.75
2023-05-06T04:28:32.996Z,3.67
2023-05-06T04:30:59.830Z,3.58
2023-05-06T04:33:27.483Z,3.70
2023-05-06T04:35:56.200Z,3.30
2023-05-06T04:38:25.900Z,3.80
2023-05-06T04:40:52.855Z,3.53
2023-05-06T04:43:19.927Z,3.17
2023-05-06T04:45:49.769Z,3.70
2023-05-06T04:48:18.581Z,3.42
2023-05-06T04:50:45.602Z,3.40
2023-05-06T04:53:12.988Z,3.57
2023-05-06T04:55:39.721Z,3.28
2023-05-06T04:58:06.599Z,3.25
2023-05-06T05:00:33.735Z,3.45
2023-05-06T05:03:01.734Z,3.40
2023-05-06T05:05:28.943Z,3.13
2023-05-06T05:07:55.894Z,3.00
2023-05-06T05:10:22.776Z,3.10
2023-05-06T05:12:49.549Z,3.15
2023-05-06T05:15:16.502Z,3.03
2023-05-06T05:17:43.417Z,3.23
2023-05-06T05:20:10.629Z,2.85
2023-05-06T05:22:37.423Z,2.33
2023-05-06T05:25:07.496Z,3.15
2023-05-06T05:27:34.859Z,3.08
2023-05-06T05:30:01.624Z,3.17
2023-05-06T05:32:28.543Z,2.88
2023-05-06T05:34:55.638Z,2.65
2023-05-06T05:37:22.487Z,2.67
2023-05-06T05:39:49.376Z,3.00
2023-05-06T05:42:16.190Z,2.70
2023-05-06T05:44:42.947Z,2.90
2023-05-06T05:47:10.036Z,2.67
2023-05-06T05:49:36.833Z,2.83
2023-05-06T05:52:04.176Z,2.38
2023-05-06T05:54:30.991Z,2.80
2023-05-06T05:56:58.180Z,2.70
2023-05-06T05:59:25.563Z,2.55
2023-05-06T06:01:52.331Z,2.90
2023-05-06T06:04:19.191Z,2.17
2023-05-06T06:06:46.495Z,3.10
2023-05-06T06:09:13.416Z,2.72
2023-05-06T06:11:40.258Z,2.42
2023-05-06T06:14:07.105Z,2.30
2023-05-06T06:16:34.059Z,2.55
2023-05-06T06:19:00.866Z,2.53
2023-05-06T06:21:27.813Z,2.22
2023-05-06T06:23:54.551Z,2.45
2023-05-06T06:26:21.493Z,2.17
2023-05-06T06:28:48.336Z,2.08
2023-05-06T06:31:15.126Z,2.10
2023-05-06T06:33:41.956Z,2.17
2023-05-06T06:36:09.085Z,2.00
2023-05-06T06:38:35.903Z,2.40
2023-05-06T06:41:02.723Z,2.00
2023-05-06T06:43:29.467Z,2.07
2023-05-06T06:45:56.717Z,2.05
2023-05-06T06:48:23.638Z,1.83
2023-05-06T06:50:50.606Z,2.42
2023-05-06T06:53:17.451Z,2.25
2023-05-06T06:55:45.100Z,1.80
2023-05-06T07:01:02.812Z,1.90
2023-05-06T07:03:29.625Z,2.20
2023-05-06T07:05:56.836Z,2.35
2023-05-06T07:08:23.622Z,2.03
2023-05-06T07:10:50.703Z,2.50
2023-05-06T07:13:17.553Z,2.10
2023-05-06T07:15:44.430Z,2.10
2023-05-06T07:18:11.942Z,2.00
2023-05-06T07:20:38.754Z,1.90
2023-05-06T07:23:05.466Z,2.20
2023-05-06T07:25:32.532Z,2.17
2023-05-06T07:27:59.423Z,2.03
2023-05-06T07:30:26.514Z,2.00
2023-05-06T07:32:53.578Z,2.10
2023-05-06T07:35:20.460Z,2.25
2023-05-06T07:37:47.635Z,2.10
2023-05-06T07:40:14.558Z,2.33
2023-05-06T07:42:42.985Z,2.28
2023-05-06T07:45:10.737Z,2.50
2023-05-06T07:47:37.744Z,1.85
2023-05-06T07:50:06.842Z,2.33
2023-05-06T07:52:33.854Z,2.03
2023-05-06T07:55:00.734Z,2.28
2023-05-06T07:57:27.530Z,1.80
2023-05-06T07:59:54.445Z,1.80
2023-05-06T08:02:21.276Z,1.88
2023-05-06T08:04:50.169Z,2.45
2023-05-06T08:07:18.270Z,2.05
2023-05-06T08:09:45.190Z,2.20
2023-05-06T08:12:11.940Z,2.35
2023-05-06T08:14:38.766Z,2.22
2023-05-06T08:17:05.639Z,1.95
2023-05-06T08:19:32.418Z,1.92
2023-05-06T08:21:59.168Z,1.97
2023-05-06T08:24:26.203Z,2.08
2023-05-06T08:26:52.981Z,2.10
2023-05-06T08:29:19.847Z,1.98
2023-05-06T08:31:47.041Z,2.33
2023-05-06T08:34:14.011Z,2.23
2023-05-06T08:36:40.865Z,2.13
2023-05-06T08:39:07.583Z,2.05
2023-05-06T08:41:34.363Z,2.10
2023-05-06T08:44:01.391Z,2.15
2023-05-06T08:46:30.940Z,2.17
2023-05-06T08:48:58.983Z,2.33
2023-05-06T08:51:29.957Z,2.22
2023-05-06T08:53:56.815Z,2.03
2023-05-06T08:56:24.593Z,1.90
2023-05-06T08:58:54.565Z,1.90
2023-05-06T09:01:22.258Z,2.20
2023-05-06T09:03:49.152Z,1.98
2023-05-06T09:06:16.078Z,2.13
2023-05-06T09:08:42.798Z,2.47
2023-05-06T09:11:29.456Z,2.17
2023-05-06T09:14:15.294Z,1.95
2023-05-06T09:16:43.933Z,2.28
2023-05-06T09:19:11.057Z,2.00
2023-05-06T09:21:41.803Z,2.25
2023-05-06T09:24:09.280Z,1.90
2023-05-06T09:26:37.015Z,2.40
2023-05-06T09:29:04.140Z,2.60
2023-05-06T09:31:31.170Z,2.88
2023-05-06T09:33:59.878Z,2.30
2023-05-06T09:36:29.549Z,2.27
2023-05-06T09:38:56.483Z,2.38
2023-05-06T09:41:26.682Z,2.22
2023-05-06T09:43:58.424Z,1.85
2023-05-06T09:46:33.205Z,2.15
2023-05-06T09:49:02.570Z,1.80
2023-05-06T09:51:29.723Z,2.42
2023-05-06T09:53:57.985Z,2.55
2023-05-06T09:56:25.004Z,2.42
2023-05-06T09:58:52.020Z,2.10
2023-05-06T10:01:32.701Z,2.37
2023-05-06T10:04:05.080Z,2.25
2023-05-06T10:06:32.825Z,2.35
2023-05-06T10:08:59.648Z,2.45
2023-05-06T10:11:26.507Z,2.38
2023-05-06T10:13:53.347Z,2.30
2023-05-06T10:16:20.230Z,2.45
2023-05-06T10:18:47.030Z,2.45
2023-05-06T10:21:19.745Z,2.28
2023-05-06T10:24:00.813Z,2.13
2023-05-06T10:26:27.988Z,2.20
2023-05-06T10:28:55.019Z,2.40
2023-05-06T10:31:21.873Z,2.47
2023-05-06T10:33:49.366Z,2.45
2023-05-06T10:36:20.193Z,2.45
2023-05-06T10:38:57.163Z,2.70
2023-05-06T10:41:26.161Z,2.70
2023-05-06T10:43:57.171Z,2.47
2023-05-06T10:46:24.845Z,2.42
2023-05-06T10:49:06.797Z,2.25
2023-05-06T10:51:34.651Z,2.60
2023-05-06T10:54:11.190Z,2.55
2023-05-06T10:57:02.663Z,2.40
2023-05-06T10:59:30.471Z,2.15
2023-05-06T11:02:03.433Z,2.65
2023-05-06T11:04:31.448Z,2.60
2023-05-06T11:07:30.381Z,2.65
2023-05-06T11:10:01.666Z,2.50
2023-05-06T11:12:51.472Z,2.53
2023-05-06T11:15:21.312Z,2.17
2023-05-06T11:17:48.130Z,2.50
2023-05-06T11:20:25.473Z,2.50
2023-05-06T11:22:53.041Z,2.35
2023-05-06T11:25:39.196Z,2.55
2023-05-06T11:28:12.794Z,2.38
2023-05-06T11:30:41.667Z,2.63
2023-05-06T11:33:08.979Z,2.10
2023-05-06T11:35:36.867Z,2.40
2023-05-06T11:38:04.830Z,2.25
2023-05-06T11:40:31.765Z,2.35
2023-05-06T11:43:16.856Z,2.00
2023-05-06T11:45:47.899Z,2.10
2023-05-06T11:48:15.496Z,2.40
2023-05-06T11:50:47.528Z,2.55
2023-05-06T11:53:16.644Z,2.10
2023-05-06T11:55:44.434Z,2.33
2023-05-06T11:58:40.741Z,2.08
2023-05-06T12:01:07.517Z,2.58
2023-05-06T12:03:34.560Z,2.60
2023-05-06T12:06:01.796Z,2.58
2023-05-06T12:08:32.916Z,2.00
2023-05-06T12:11:03.890Z,2.83
2023-05-06T12:13:30.917Z,2.20
2023-05-06T12:15:58.937Z,2.70
2023-05-06T12:18:25.802Z,2.47
2023-05-06T12:20:56.300Z,2.60
2023-05-06T12:23:23.302Z,2.30
2023-05-06T12:26:06.381Z,2.83
2023-05-06T12:28:34.875Z,2.33
2023-05-06T12:31:02.155Z,2.40
2023-05-06T12:33:33.941Z,2.40
2023-05-06T12:36:07.048Z,2.47
2023-05-06T12:38:33.919Z,2.50
2023-05-06T12:41:00.933Z,2.50
2023-05-06T12:43:30.955Z,2.78
2023-05-06T12:46:05.377Z,3.07
2023-05-06T12:48:32.369Z,3.05
2023-05-06T12:50:59.243Z,2.65
2023-05-06T12:53:33.736Z,2.80
2023-05-06T12:56:00.930Z,2.70
2023-05-06T12:58:27.793Z,2.40
2023-05-06T13:00:54.769Z,2.65
2023-05-06T13:03:21.845Z,2.42
2023-05-06T13:05:50.385Z,2.65
2023-05-06T13:08:17.338Z,2.95
2023-05-06T13:10:44.160Z,2.80
2023-05-06T13:13:11.159Z,3.22
2023-05-06T13:15:38.951Z,2.70
2023-05-06T13:18:05.985Z,2.92
2023-05-06T13:20:32.861Z,2.63
2023-05-06T13:22:59.646Z,2.70
2023-05-06T13:25:26.444Z,2.40
2023-05-06T13:27:53.421Z,2.83
2023-05-06T13:30:20.253Z,3.05
2023-05-06T13:32:47.198Z,2.60
2023-05-06T13:35:14.032Z,2.87
2023-05-06T13:37:41.110Z,3.30
2023-05-06T13:40:08.744Z,2.60
2023-05-06T13:42:36.620Z,2.42
2023-05-06T13:45:03.648Z,2.83
2023-05-06T13:47:31.257Z,2.93
2023-05-06T13:49:58.086Z,2.67
2023-05-06T13:52:24.813Z,2.78
2023-05-06T13:54:51.622Z,2.83
2023-05-06T13:57:19.072Z,2.83
2023-05-06T13:59:45.901Z,2.80
2023-05-06T14:02:13.460Z,2.95
2023-05-06T14:04:40.524Z,2.72
2023-05-06T14:07:07.255Z,3.00
2023-05-06T14:09:34.043Z,2.65
2023-05-06T14:12:01.476Z,2.90
2023-05-06T14:14:28.733Z,2.75
2023-05-06T14:16:55.814Z,2.42
2023-05-06T14:19:23.540Z,2.72
2023-05-06T14:21:51.845Z,2.63
2023-05-06T14:24:18.667Z,3.00
2023-05-06T14:26:46.208Z,2.47
2023-05-06T14:29:13.069Z,2.83
2023-05-06T14:31:39.892Z,2.83
2023-05-06T14:34:08.307Z,2.25
2023-05-06T14:36:35.045Z,3.03
2023-05-06T14:39:01.763Z,2.58
2023-05-06T14:41:28.707Z,2.40
2023-05-06T14:43:55.559Z,2.40
2023-05-06T14:46:22.295Z,2.72
2023-05-06T14:48:49.303Z,2.63
2023-05-06T14:51:16.037Z,2.83
2023-05-06T14:53:42.804Z,3.05
2023-05-06T14:56:12.519Z,2.80
2023-05-06T14:58:39.422Z,2.97
2023-05-06T15:01:07.056Z,2.47
2023-05-06T15:03:34.073Z,2.58
2023-05-06T15:06:01.060Z,2.20
2023-05-06T15:08:27.974Z,2.60
2023-05-06T15:10:55.052Z,2.40
2023-05-06T15:13:21.888Z,2.50
2023-05-06T15:15:48.711Z,2.50
2023-05-06T15:18:15.849Z,2.75
2023-05-06T15:20:42.651Z,2.58
2023-05-06T15:23:09.427Z,2.70
2023-05-06T15:25:39.505Z,2.40
2023-05-06T15:28:06.691Z,2.40
2023-05-06T15:30:33.632Z,2.35
2023-05-06T15:33:01.685Z,2.42
2023-05-06T15:35:28.786Z,2.40
2023-05-06T15:37:58.958Z,2.43
2023-05-06T15:40:26.410Z,2.83
2023-05-06T15:42:53.304Z,2.47
2023-05-06T15:45:21.114Z,2.25
2023-05-06T15:47:48.436Z,2.42
2023-05-06T15:50:28.938Z,2.27
2023-05-06T15:52:59.983Z,2.00
2023-05-06T15:55:26.901Z,2.33
2023-05-06T15:57:54.900Z,2.70
2023-05-06T16:00:22.127Z,2.25
2023-05-06T16:02:49.345Z,2.60
2023-05-06T16:05:16.481Z,2.50
2023-05-06T16:07:43.704Z,1.90
2023-05-06T16:10:10.720Z,2.50
2023-05-06T16:12:37.812Z,2.33
2023-05-06T16:15:04.961Z,2.40
2023-05-06T16:17:33.150Z,2.53
2023-05-06T16:20:00.161Z,2.83
2023-05-06T16:22:27.003Z,2.50
2023-05-06T16:24:53.827Z,2.38
2023-05-06T16:27:21.282Z,2.27
2023-05-06T16:29:48.123Z,2.70
2023-05-06T16:32:14.916Z,2.75
2023-05-06T16:34:41.707Z,2.35
2023-05-06T16:37:08.746Z,2.70
2023-05-06T16:39:35.532Z,2.70
2023-05-06T16:42:02.302Z,2.38
2023-05-06T16:44:29.413Z,2.22
2023-05-06T16:46:56.598Z,2.10
2023-05-06T16:49:24.267Z,2.08
2023-05-06T16:51:51.052Z,2.37
2023-05-06T16:54:17.838Z,2.30
2023-05-06T16:56:51.841Z,2.60
2023-05-06T16:59:21.730Z,1.85
2023-05-06T17:01:49.250Z,2.60
2023-05-06T17:04:16.723Z,2.40
2023-05-06T17:06:43.582Z,2.58
2023-05-06T17:09:11.138Z,2.50
2023-05-06T17:11:38.043Z,2.80
2023-05-06T17:14:04.995Z,2.47
2023-05-06T17:16:31.931Z,2.37
2023-05-06T17:18:59.083Z,2.92
2023-05-06T17:21:26.981Z,2.63
2023-05-06T17:23:54.574Z,2.65
2023-05-06T17:26:21.951Z,2.78
2023-05-06T17:28:49.054Z,2.50
2023-05-06T17:31:16.224Z,2.70
2023-05-06T17:33:44.556Z,2.90
2023-05-06T17:36:18.365Z,2.22
2023-05-06T17:38:45.175Z,2.70
2023-05-06T17:41:12.252Z,2.93
2023-05-06T17:43:39.052Z,2.83
2023-05-06T17:46:08.085Z,2.53
2023-05-06T17:48:35.753Z,2.60
2023-05-06T17:51:02.778Z,2.63
2023-05-06T17:53:29.873Z,2.53
2023-05-06T17:55:57.215Z,2.60
2023-05-06T17:58:24.114Z,2.90
2023-05-06T18:00:51.019Z,2.95
2023-05-06T18:03:17.928Z,2.80
2023-05-06T18:05:45.833Z,3.10
2023-05-06T18:08:12.691Z,2.75
2023-05-06T18:10:41.198Z,3.25
2023-05-06T18:13:08.436Z,3.13
2023-05-06T18:15:35.280Z,3.55
2023-05-06T18:18:02.105Z,3.10
2023-05-06T18:20:29.114Z,2.72
2023-05-06T18:22:56.531Z,2.90
2023-05-06T18:25:23.475Z,3.25
2023-05-06T18:27:50.390Z,3.47
2023-05-06T18:30:17.257Z,3.30
2023-05-06T18:32:44.039Z,3.30
2023-05-06T18:35:11.266Z,3.30
2023-05-06T18:37:38.631Z,3.20
2023-05-06T18:40:06.282Z,3.50
2023-05-06T18:42:34.023Z,3.30
2023-05-06T18:45:04.662Z,3.72
2023-05-06T18:47:32.322Z,3.38
2023-05-06T18:50:00.723Z,3.20
2023-05-06T18:52:27.628Z,2.92
2023-05-06T18:54:54.554Z,3.40
2023-05-06T18:57:21.433Z,3.60
2023-05-06T18:59:48.296Z,3.17
2023-05-06T19:02:15.057Z,3.50
2023-05-06T19:04:41.859Z,3.80
2023-05-06T19:07:08.736Z,3.70
2023-05-06T19:09:37.248Z,3.67
2023-05-06T19:12:04.558Z,3.80
2023-05-06T19:14:32.590Z,3.50
2023-05-06T19:16:59.654Z,3.67
2023-05-06T19:19:26.462Z,3.50
2023-05-06T19:21:53.962Z,3.75
2023-05-06T19:24:20.760Z,3.67
2023-05-06T19:26:47.584Z,4.00
2023-05-06T19:29:14.854Z,3.60
2023-05-06T19:31:41.948Z,3.87
2023-05-06T19:34:08.763Z,3.90
2023-05-06T19:36:35.530Z,3.72
2023-05-06T19:39:02.322Z,3.88
2023-05-06T19:41:29.226Z,4.18
2023-05-06T19:43:56.021Z,4.03
2023-05-06T19:46:22.923Z,4.20
2023-05-06T19:48:49.700Z,4.78
2023-05-06T19:51:16.627Z,4.57
2023-05-06T19:53:43.510Z,4.47
2023-05-06T19:56:13.562Z,4.53
2023-05-06T19:58:40.664Z,4.80
2023-05-06T20:01:07.767Z,5.22
2023-05-06T20:03:34.985Z,5.72
2023-05-06T20:06:01.979Z,5.35
2023-05-06T20:08:28.822Z,5.73
2023-05-06T20:10:55.922Z,5.05
2023-05-06T20:13:22.853Z,5.13
2023-05-06T20:15:50.037Z,5.20
2023-05-06T20:18:16.908Z,5.70
2023-05-06T20:20:43.810Z,6.00
2023-05-06T20:23:10.626Z,6.03
2023-05-06T20:25:37.512Z,5.78
2023-05-06T20:28:05.673Z,6.55
2023-05-06T20:30:32.947Z,6.35
2023-05-06T20:32:59.942Z,6.10
2023-05-06T20:35:27.338Z,6.55
2023-05-06T20:37:54.712Z,6.45
2023-05-06T20:40:21.851Z,6.35
2023-05-06T20:42:48.734Z,6.50
2023-05-06T20:45:15.658Z,6.07
2023-05-06T20:47:42.597Z,6.30
2023-05-06T20:50:16.281Z,6.63
2023-05-06T20:52:45.717Z,6.80
2023-05-06T20:55:14.828Z,6.13
2023-05-06T20:57:43.488Z,6.53
2023-05-06T21:00:11.517Z,7.10
2023-05-06T21:02:41.170Z,6.22
2023-05-06T21:05:09.140Z,6.20
2023-05-06T21:07:36.436Z,6.30
2023-05-06T21:10:03.888Z,6.43
2023-05-06T21:12:30.657Z,6.90
2023-05-06T21:14:58.875Z,6.63
2023-05-06T21:17:26.469Z,6.40
2023-05-06T21:19:53.620Z,7.00
2023-05-06T21:22:23.659Z,6.67
2023-05-06T21:24:51.291Z,6.53
2023-05-06T21:27:18.288Z,6.70
2023-05-06T21:29:45.384Z,6.80
2023-05-06T21:32:12.216Z,7.00
2023-05-06T21:34:39.038Z,6.90
2023-05-06T21:37:05.840Z,6.47
2023-05-06T21:39:32.649Z,6.45
2023-05-06T21:41:59.412Z,7.35
2023-05-06T21:44:26.216Z,7.22
2023-05-06T21:46:53.073Z,7.93
2023-05-06T21:49:21.985Z,7.50
2023-05-06T21:51:48.888Z,7.25
2023-05-06T21:54:17.169Z,7.45
2023-05-06T21:56:43.935Z,7.57
2023-05-06T21:59:10.796Z,6.87
2023-05-06T22:01:37.788Z,7.88
2023-05-06T22:04:11.440Z,7.75
2023-05-06T22:06:39.238Z,8.25
2023-05-06T22:09:09.554Z,7.75
2023-05-06T22:11:40.520Z,7.17
2023-05-06T22:14:07.508Z,7.88
2023-05-06T22:16:35.786Z,7.03
2023-05-06T22:19:04.051Z,7.90
2023-05-06T22:21:32.811Z,7.85
2023-05-06T22:23:59.766Z,7.40
2023-05-06T22:26:28.319Z,7.43
2023-05-06T22:28:57.975Z,7.50
2023-05-06T22:31:25.183Z,7.35
2023-05-06T22:33:55.435Z,7.22
2023-05-06T22:36:22.537Z,6.97
2023-05-06T22:38:49.463Z,7.35
2023-05-06T22:41:17.499Z,7.28
2023-05-06T22:43:44.389Z,7.30
2023-05-06T22:46:11.181Z,6.93
2023-05-06T22:48:38.111Z,7.63
2023-05-06T22:51:05.070Z,7.72
2023-05-06T22:53:31.839Z,7.57
2023-05-06T22:55:58.773Z,7.78
2023-05-06T22:58:25.712Z,7.38
2023-05-06T23:00:52.427Z,7.70
2023-05-06T23:03:19.687Z,7.88
2023-05-06T23:05:46.527Z,7.13
2023-05-06T23:08:13.305Z,8.05
2023-05-06T23:10:40.095Z,7.43
2023-05-06T23:13:06.967Z,7.33
2023-05-06T23:15:33.803Z,8.18
2023-05-06T23:18:01.127Z,7.38
2023-05-06T23:20:27.976Z,7.93
2023-05-06T23:22:54.711Z,7.43
2023-05-06T23:25:21.579Z,7.73
2023-05-06T23:27:48.319Z,7.03
2023-05-06T23:30:15.144Z,7.07
2023-05-06T23:32:42.107Z,7.72
2023-05-06T23:35:09.526Z,7.72
2023-05-06T23:37:36.499Z,7.50
2023-05-06T23:40:04.231Z,7.50
2023-05-06T23:42:31.045Z,6.75
2023-05-06T23:45:00.272Z,7.03
2023-05-06T23:47:27.159Z,7.00
2023-05-06T23:49:53.924Z,7.13
2023-05-06T23:52:21.355Z,7.50
2023-05-06T23:54:48.107Z,6.95
2023-05-06T23:57:14.938Z,7.18
2023-05-06T23:59:41.755Z,6.72
